createdAt,value
2022-12-05T00:00:15.775Z,4.86
2022-12-05T00:05:19.788Z,4.89
2022-12-05T00:10:22.455Z,4.83
2022-12-05T00:15:25.003Z,4.84
2022-12-05T00:20:29.354Z,4.82
2022-12-05T00:25:31.902Z,4.88
2022-12-05T00:30:34.457Z,4.83
2022-12-05T00:35:38.366Z,4.82
2022-12-05T00:40:40.939Z,4.71
2022-12-05T00:45:43.556Z,4.84
2022-12-05T00:50:47.467Z,4.87
2022-12-05T00:55:49.965Z,4.89
2022-12-05T01:00:53.244Z,4.87
2022-12-05T01:05:57.115Z,4.93
2022-12-05T01:10:59.859Z,4.83
2022-12-05T01:16:03.024Z,4.97
2022-12-05T01:21:07.631Z,4.93
2022-12-05T01:26:13.205Z,5.00
2022-12-05T01:31:21.988Z,4.99
2022-12-05T01:36:27.864Z,4.81
2022-12-05T01:41:33.946Z,4.96
2022-12-05T01:46:37.922Z,5.03
2022-12-05T01:51:47.048Z,4.97
2022-12-05T01:56:54.161Z,4.99
2022-12-05T02:01:57.707Z,4.99
2022-12-05T02:07:01.667Z,5.03
2022-12-05T02:12:05.402Z,5.03
2022-12-05T02:17:16.699Z,5.07
2022-12-05T02:22:59.644Z,4.93
2022-12-05T02:28:33.315Z,4.93
2022-12-05T02:33:43.523Z,4.89
2022-12-05T02:38:55.973Z,4.87
2022-12-05T02:44:02.929Z,4.96
2022-12-05T02:49:11.157Z,4.97
2022-12-05T02:54:18.263Z,4.95
2022-12-05T02:59:23.513Z,4.89
2022-12-05T03:04:30.059Z,4.85
2022-12-05T03:09:38.007Z,4.92
2022-12-05T03:14:44.661Z,4.86
2022-12-05T03:19:58.285Z,4.91
2022-12-05T03:25:04.336Z,4.92
2022-12-05T03:30:09.549Z,4.88
2022-12-05T03:35:21.002Z,4.90
2022-12-05T03:40:30.526Z,4.87
2022-12-05T03:45:40.140Z,4.93
2022-12-05T03:50:47.304Z,4.95
2022-12-05T03:55:55.615Z,4.95
2022-12-05T04:01:02.343Z,4.87
2022-12-05T04:06:13.028Z,4.86
2022-12-05T04:11:19.277Z,4.96
2022-12-05T04:16:43.901Z,4.93
2022-12-05T04:21:51.348Z,4.90
2022-12-05T04:27:03.950Z,4.79
2022-12-05T04:32:11.389Z,4.92
2022-12-05T04:37:20.968Z,4.86
2022-12-05T04:42:27.107Z,4.97
2022-12-05T04:47:33.833Z,4.93
2022-12-05T04:52:38.457Z,4.89
2022-12-05T04:57:45.699Z,4.85
2022-12-05T05:02:55.577Z,4.96
2022-12-05T05:07:59.711Z,5.00
2022-12-05T05:13:02.591Z,5.04
2022-12-05T05:18:05.399Z,5.07
2022-12-05T05:23:09.327Z,4.91
2022-12-05T05:28:11.916Z,4.87
2022-12-05T05:33:14.824Z,4.84
2022-12-05T05:38:18.696Z,4.70
2022-12-05T05:43:21.242Z,4.86
2022-12-05T05:48:23.788Z,4.91
2022-12-05T05:53:27.719Z,4.90
2022-12-05T05:58:30.288Z,5.08
2022-12-05T06:03:33.164Z,5.00
2022-12-05T06:08:38.805Z,5.02
2022-12-05T06:13:41.455Z,4.70
2022-12-05T06:18:44.053Z,4.92
2022-12-05T06:23:48.269Z,4.92
2022-12-05T06:28:50.980Z,4.85
2022-12-05T06:33:53.667Z,4.77
2022-12-05T06:38:58.563Z,4.75
2022-12-05T06:44:02.413Z,4.77
2022-12-05T06:49:05.370Z,4.76
2022-12-05T06:54:09.461Z,4.77
2022-12-05T06:59:12.015Z,4.73
2022-12-05T07:04:16.470Z,4.73
2022-12-05T07:09:22.530Z,4.58
2022-12-05T07:14:46.439Z,4.72
2022-12-05T07:19:49.304Z,4.70
2022-12-05T07:24:53.655Z,4.68
2022-12-05T07:29:56.689Z,4.72
2022-12-05T07:34:59.967Z,4.73
2022-12-05T07:40:04.049Z,4.78
2022-12-05T07:45:08.130Z,4.70
2022-12-05T07:50:11.666Z,4.67
2022-12-05T07:55:15.577Z,4.69
2022-12-05T08:00:19.773Z,4.68
2022-12-05T08:05:22.351Z,4.72
2022-12-05T08:10:26.546Z,4.59
2022-12-05T08:15:29.337Z,4.57
2022-12-05T08:20:31.961Z,4.42
2022-12-05T08:25:36.803Z,4.16
2022-12-05T08:30:39.483Z,4.25
2022-12-05T08:35:42.071Z,4.01
2022-12-05T08:40:47.446Z,4.16
2022-12-05T08:45:51.102Z,4.24
2022-12-05T08:50:54.368Z,4.19
2022-12-05T08:56:01.653Z,4.25
2022-12-05T09:01:06.109Z,4.11
2022-12-05T09:06:11.531Z,4.25
2022-12-05T09:11:18.070Z,4.10
2022-12-05T09:16:23.399Z,4.26
2022-12-05T09:21:27.786Z,4.20
2022-12-05T09:26:31.715Z,4.22
2022-12-05T09:31:34.526Z,4.19
2022-12-05T09:36:37.240Z,4.21
2022-12-05T09:42:08.929Z,4.10
2022-12-05T09:47:30.578Z,4.16
2022-12-05T09:52:37.708Z,4.01
2022-12-05T09:57:48.306Z,4.22
2022-12-05T10:03:00.845Z,4.24
2022-12-05T10:08:12.690Z,4.20
2022-12-05T10:13:29.072Z,4.09
2022-12-05T10:18:38.677Z,4.10
2022-12-05T10:23:58.947Z,4.10
2022-12-05T10:29:13.358Z,4.22
2022-12-05T10:34:19.668Z,4.11
2022-12-05T10:39:22.663Z,4.22
2022-12-05T10:44:26.917Z,4.15
2022-12-05T10:49:30.780Z,4.10
2022-12-05T10:54:41.024Z,4.10
2022-12-05T10:59:49.123Z,4.12
2022-12-05T11:04:53.579Z,4.10
2022-12-05T11:09:57.239Z,3.99
2022-12-05T11:15:04.625Z,3.94
2022-12-05T11:20:35.965Z,4.03
2022-12-05T11:25:38.519Z,4.15
2022-12-05T11:30:57.861Z,4.25
2022-12-05T11:36:06.483Z,4.04
2022-12-05T11:41:27.655Z,4.06
2022-12-05T11:46:41.421Z,3.70
2022-12-05T11:51:52.479Z,4.07
2022-12-05T11:56:58.102Z,4.08
2022-12-05T12:02:15.147Z,4.11
2022-12-05T12:07:28.677Z,4.09
2022-12-05T12:12:41.426Z,4.18
2022-12-05T12:17:52.503Z,4.25
2022-12-05T12:23:10.058Z,4.28
2022-12-05T12:28:33.482Z,4.29
2022-12-05T12:33:42.598Z,4.34
2022-12-05T12:39:07.808Z,4.22
2022-12-05T12:44:32.779Z,4.25
2022-12-05T12:49:50.696Z,4.19
2022-12-05T12:55:09.916Z,4.23
2022-12-05T13:00:23.378Z,4.15
2022-12-05T13:05:34.808Z,4.24
2022-12-05T13:10:41.547Z,4.29
2022-12-05T13:15:47.763Z,4.06
2022-12-05T13:20:54.214Z,4.19
2022-12-05T13:25:59.760Z,4.18
2022-12-05T13:31:04.767Z,4.23
2022-12-05T13:36:29.446Z,4.19
2022-12-05T13:41:58.312Z,4.11
2022-12-05T13:47:02.525Z,3.99
2022-12-05T13:52:10.618Z,4.03
2022-12-05T13:57:52.779Z,3.89
2022-12-05T14:03:04.800Z,3.43
2022-12-05T14:08:46.127Z,3.68
2022-12-05T14:13:51.761Z,3.61
2022-12-05T14:19:03.814Z,3.76
2022-12-05T14:24:15.841Z,3.74
2022-12-05T14:29:39.400Z,3.78
2022-12-05T14:34:55.686Z,3.78
2022-12-05T14:40:00.901Z,3.82
2022-12-05T14:45:26.725Z,3.78
2022-12-05T14:50:44.345Z,3.75
2022-12-05T14:55:48.825Z,3.64
2022-12-05T15:00:58.615Z,3.62
2022-12-05T15:06:04.348Z,3.64
2022-12-05T15:11:06.952Z,3.62
2022-12-05T15:16:16.634Z,3.62
2022-12-05T15:21:24.516Z,3.61
2022-12-05T15:26:46.293Z,3.61
2022-12-05T15:31:53.758Z,3.65
2022-12-05T15:36:59.518Z,3.62
2022-12-05T15:42:02.204Z,3.62
2022-12-05T15:47:06.117Z,3.58
2022-12-05T15:52:24.739Z,3.57
2022-12-05T15:57:33.077Z,3.49
2022-12-05T16:02:46.490Z,3.56
2022-12-05T16:07:50.515Z,3.57
2022-12-05T16:12:54.184Z,3.58
2022-12-05T16:18:00.325Z,3.58
2022-12-05T16:23:05.793Z,3.54
2022-12-05T16:28:19.139Z,3.39
2022-12-05T16:33:23.698Z,3.30
2022-12-05T16:38:29.662Z,3.34
2022-12-05T16:43:45.460Z,3.30
2022-12-05T16:49:20.408Z,3.32
2022-12-05T16:54:23.166Z,3.20
2022-12-05T16:59:32.334Z,2.98
2022-12-05T17:04:36.459Z,3.26
2022-12-05T17:09:39.026Z,3.28
2022-12-05T17:14:42.687Z,3.35
2022-12-05T17:19:46.619Z,3.23
2022-12-05T17:24:50.930Z,3.33
2022-12-05T17:29:53.485Z,3.42
2022-12-05T17:35:00.094Z,3.46
2022-12-05T17:40:05.800Z,3.39
2022-12-05T17:45:12.922Z,3.44
2022-12-05T17:50:19.347Z,3.32
2022-12-05T17:55:24.402Z,3.54
2022-12-05T18:00:27.324Z,3.54
2022-12-05T18:05:31.293Z,3.58
2022-12-05T18:10:33.866Z,3.55
2022-12-05T18:15:42.504Z,3.62
2022-12-05T18:20:47.063Z,3.56
2022-12-05T18:25:58.223Z,3.62
2022-12-05T18:31:06.097Z,3.75
2022-12-05T18:36:13.896Z,3.77
2022-12-05T18:41:16.494Z,3.80
2022-12-05T18:46:19.335Z,3.79
2022-12-05T18:51:24.469Z,3.70
2022-12-05T18:56:30.265Z,3.68
2022-12-05T19:01:38.673Z,3.71
2022-12-05T19:06:47.112Z,3.42
2022-12-05T19:11:52.008Z,3.22
2022-12-05T19:16:59.910Z,3.21
2022-12-05T19:22:04.401Z,3.37
2022-12-05T19:27:06.957Z,3.44
2022-12-05T19:32:09.833Z,3.48
2022-12-05T19:37:13.842Z,3.68
2022-12-05T19:42:16.767Z,3.71
2022-12-05T19:47:19.333Z,3.75
2022-12-05T19:52:23.552Z,3.73
2022-12-05T19:57:31.065Z,3.70
2022-12-05T20:02:38.356Z,3.79
2022-12-05T20:07:44.388Z,3.89
2022-12-05T20:12:47.124Z,3.67
2022-12-05T20:17:53.113Z,3.85
2022-12-05T20:22:57.412Z,3.86
2022-12-05T20:27:59.939Z,3.83
2022-12-05T20:33:03.013Z,3.12
2022-12-05T20:38:07.040Z,3.45
2022-12-05T20:43:09.875Z,3.59
2022-12-05T20:48:12.863Z,3.75
2022-12-05T20:53:16.827Z,3.91
2022-12-05T20:58:19.503Z,3.47
2022-12-05T21:03:22.077Z,3.72
2022-12-05T21:08:26.408Z,3.81
2022-12-05T21:13:29.574Z,3.83
2022-12-05T21:18:32.582Z,3.97
2022-12-05T21:23:36.830Z,3.99
2022-12-05T21:28:39.880Z,3.55
2022-12-05T21:33:43.994Z,3.95
2022-12-05T21:38:52.373Z,4.08
2022-12-05T21:43:58.488Z,4.10
2022-12-05T21:49:01.307Z,4.14
2022-12-05T21:54:05.447Z,4.18
2022-12-05T21:59:08.379Z,4.19
2022-12-05T22:04:11.215Z,4.24
2022-12-05T22:09:15.438Z,4.21
2022-12-05T22:14:18.226Z,4.19
2022-12-05T22:19:21.168Z,4.16
2022-12-05T22:24:25.017Z,4.22
2022-12-05T22:29:29.263Z,4.29
2022-12-05T22:34:31.799Z,4.28
2022-12-05T22:39:43.250Z,3.39
2022-12-05T22:44:46.358Z,4.33
2022-12-05T22:49:48.895Z,4.31
2022-12-05T22:54:52.741Z,4.19
2022-12-05T22:59:55.272Z,4.33
2022-12-05T23:04:59.053Z,4.44
2022-12-05T23:10:03.296Z,4.42
2022-12-05T23:15:06.849Z,4.64
2022-12-05T23:20:10.025Z,4.63
2022-12-05T23:25:14.107Z,4.66
2022-12-05T23:30:17.272Z,4.70
2022-12-05T23:35:19.968Z,4.69
2022-12-05T23:40:24.445Z,4.70
2022-12-05T23:45:28.722Z,4.77
2022-12-05T23:50:31.511Z,4.83
2022-12-05T23:55:35.975Z,4.86
